Mega Smeralda — ICIU — position and weather

sailwx.info

Track history (hours):
 
Tides and Currents Weather Stations Pressure Air Temp Water Temp Dewpoint Dewpoint Depression Visibility Wind Speed Wind Dir Waves Ship Positions

Mega Smeralda

Last reported at 2016-Jul-24 22:34 UTC. Time now 2016-Jul-25 06:13 UTC.
Position N 43°06' E 005°55'.

Length 171 m; draft 6.4 m.

Type: Passenger vessel. MMSI: 247228600.

Date/timePositionNaut miles runAvg speedWind from/ knotsBaromVisibWave heightAir tempDewpointWater temp
2016-Jul-24 22:34N 43°06' E 005°55'1 0.9
2016-Jul-24 21:32N 43°07' E 005°56'10817.9
2016-Jul-24 15:31N 42°45' E 008°20'2619.7
2016-Jul-24 14:12N 42°42' E 008°55'13415.5
2016-Jul-24 05:33N 43°07' E 005°56'0 0.2
2016-Jul-24 04:33N 43°07' E 005°56'13516.4
2016-Jul-23 20:18N 43°03' E 009°01'1418.9
2016-Jul-23 19:33N 43°03' E 009°20'1615.8
2016-Jul-23 18:33N 42°50' E 009°32'6 2.6
2016-Jul-23 16:15N 42°44' E 009°30'1217.1
2016-Jul-23 15:33N 42°56' E 009°35'1919.4
2016-Jul-23 14:33N 43°12' E 009°49'2020.1
2016-Jul-23 13:33N 43°27' E 010°07'10 9.5
2016-Jul-23 12:32N 43°33' E 010°18'0 0.0
2016-Jul-23 11:33N 43°33' E 010°18'1010.3
2016-Jul-23 10:34N 43°24' E 010°11'1717.4
2016-Jul-23 09:34N 43°08' E 010°01'1816.8
2016-Jul-23 08:30N 42°54' E 009°48'21 5.0
2016-Jul-23 04:23N 43°04' E 009°23'1619.6
2016-Jul-23 03:33N 43°03' E 009°01'2020.0
2016-Jul-23 02:33N 43°01' E 008°33'2019.5
2016-Jul-23 01:33N 43°00' E 008°07'1919.2
2016-Jul-23 00:33N 42°59' E 007°41'1919.3
2016-Jul-22 23:33N 42°58' E 007°14'1919.0
2016-Jul-22 22:33N 42°57' E 006°48'1919.1
2016-Jul-22 21:33N 42°56' E 006°22'2017.9
2016-Jul-22 20:26N 43°05' E 005°57'2 2.4
2016-Jul-22 19:32N 43°07' E 005°56'0 0.2
2016-Jul-22 18:33N 43°07' E 005°56'1615.3
2016-Jul-22 17:30N 42°56' E 006°13'1920.7
2016-Jul-22 16:33N 42°53' E 006°39'2020.4
2016-Jul-22 15:33N 42°51' E 007°06'2020.2
2016-Jul-22 14:33N 42°49' E 007°34'2020.2
2016-Jul-22 13:33N 42°46' E 008°01'2020.2
2016-Jul-22 12:33N 42°44' E 008°29'2020.1
2016-Jul-22 11:33N 42°41' E 008°56'3 2.6
2016-Jul-22 10:32N 42°38' E 008°56'9 9.3
2016-Jul-22 09:32N 42°45' E 008°48'2020.2
2016-Jul-22 08:33N 42°58' E 008°27'2020.1
2016-Jul-22 07:33N 43°11' E 008°06'4020.1
2016-Jul-22 05:33N 43°36' E 007°23'7 6.7
2016-Jul-22 04:32N 43°42' E 007°17'2 2.4
2016-Jul-22 03:33N 43°39' E 007°18'1515.2
2016-Jul-22 02:33N 43°34' E 007°38'1615.6
2016-Jul-22 01:33N 43°28' E 007°58'1615.8
2016-Jul-22 00:33N 43°22' E 008°18'1615.6
2016-Jul-21 23:33N 43°17' E 008°39'1615.7
2016-Jul-21 22:33N 43°11' E 008°59'1615.6
2016-Jul-21 21:32N 43°05' E 009°19'1413.9
2016-Jul-21 20:32N 42°55' E 009°32'13 6.7
2016-Jul-21 18:33N 42°42' E 009°28'1818.1
2016-Jul-21 17:33N 43°00' E 009°31'2019.8
2016-Jul-21 16:33N 43°17' E 009°17'2020.0
2016-Jul-21 15:33N 43°34' E 009°03'2019.9
2016-Jul-21 14:33N 43°51' E 008°49'2020.1
2016-Jul-21 13:33N 44°09' E 008°35'9 8.9
2016-Jul-21 12:31N 44°16' E 008°27'0 0.1
2016-Jul-21 11:34N 44°16' E 008°27'1615.6
2016-Jul-21 10:33N 44°04' E 008°41'2020.3
2016-Jul-21 09:33N 43°46' E 008°55'2120.6
2016-Jul-21 08:33N 43°29' E 009°09'2020.3
2016-Jul-21 07:33N 43°11' E 009°23'2120.4
2016-Jul-21 06:31N 42°51' E 009°32'9 4.4
2016-Jul-21 04:33N 42°43' E 009°29'1212.5
2016-Jul-21 03:33N 42°55' E 009°32'1313.0
2016-Jul-21 02:33N 43°07' E 009°25'1313.0
2016-Jul-21 01:33N 43°18' E 009°16'1513.2
2016-Jul-21 00:24N 43°31' E 009°06'1112.9
2016-Jul-20 23:34N 43°41' E 008°58'1313.0
2016-Jul-20 22:33N 43°52' E 008°49'1312.9
2016-Jul-20 21:33N 44°03' E 008°40'1313.0
2016-Jul-20 20:34N 44°14' E 008°30'3 3.0
2016-Jul-20 19:31N 44°16' E 008°27'0 0.0
2016-Jul-20 18:31N 44°16' E 008°27'0 0.0
2016-Jul-20 17:31N 44°16' E 008°27'0 0.0
2016-Jul-20 16:31N 44°16' E 008°27'0 0.0
2016-Jul-20 15:28N 44°16' E 008°27'8 8.7
2016-Jul-20 14:34N 44°11' E 008°35'1919.2
2016-Jul-20 13:34N 43°54' E 008°49'2120.6
2016-Jul-20 12:34N 43°36' E 009°03'2120.5
2016-Jul-20 11:34N 43°18' E 009°17'2120.5
2016-Jul-20 10:34N 43°00' E 009°31'1918.5
2016-Jul-20 09:33N 42°42' E 009°28'4 0.8
2016-Jul-20 04:33N 42°45' E 009°31'1312.5
2016-Jul-20 03:33N 42°58' E 009°31'1212.5
2016-Jul-20 02:34N 43°09' E 009°24'1312.7
2016-Jul-20 01:34N 43°20' E 009°15'1313.1
2016-Jul-20 00:33N 43°31' E 009°06'1312.8
2016-Jul-19 23:33N 43°42' E 008°57'1313.0
2016-Jul-19 22:33N 43°53' E 008°48'1313.2
2016-Jul-19 21:34N 44°05' E 008°38'1313.1
2016-Jul-19 20:33N 44°16' E 008°28'1 0.9
2016-Jul-19 19:33N 44°16' E 008°27'0 0.0
2016-Jul-19 18:33N 44°16' E 008°27'0 0.0
2016-Jul-19 17:33N 44°16' E 008°27'0 0.0
2016-Jul-19 16:33N 44°16' E 008°27'0 0.0
2016-Jul-19 15:33N 44°16' E 008°27'9 9.0
2016-Jul-19 14:34N 44°10' E 008°36'2019.8
2016-Jul-19 13:33N 43°53' E 008°50'2019.9
2016-Jul-19 12:34N 43°35' E 009°04'2019.9
2016-Jul-19 11:34N 43°18' E 009°17'2019.9
2016-Jul-19 10:34N 43°01' E 009°32'15 2.5
2016-Jul-19 04:32N 42°46' E 009°32'1515.0
2016-Jul-19 03:34N 43°01' E 009°30'1515.0
2016-Jul-19 02:34N 43°14' E 009°20'1615.1
2016-Jul-19 01:31N 43°27' E 009°09'1415.0
2016-Jul-19 00:33N 43°40' E 008°59'1514.7
2016-Jul-18 23:34N 43°52' E 008°48'1514.9
2016-Jul-18 22:34N 44°05' E 008°38'1313.2
2016-Jul-18 21:33N 44°16' E 008°27'0 0.0
2016-Jul-18 20:31N 44°16' E 008°27'6 6.2
2016-Jul-18 19:34N 44°12' E 008°34'2020.1
2016-Jul-18 18:33N 43°55' E 008°48'2020.2
2016-Jul-18 17:33N 43°37' E 009°02'2020.4
2016-Jul-18 16:33N 43°20' E 009°16'2120.5
2016-Jul-18 15:33N 43°02' E 009°30'20 9.6
2016-Jul-18 13:27N 42°42' E 009°27'1517.2
2016-Jul-18 12:33N 42°51' E 009°44'2019.8
2016-Jul-18 11:33N 43°07' E 010°01'2120.5
2016-Jul-18 10:33N 43°26' E 010°10'9 8.6
2016-Jul-18 09:31N 43°33' E 010°18'0 0.3
2016-Jul-18 08:33N 43°33' E 010°18'1716.7
2016-Jul-18 07:34N 43°18' E 010°07'2020.1
2016-Jul-18 06:33N 42°59' E 009°57'27 9.0
2016-Jul-18 03:33N 42°42' E 009°28'1414.1
2016-Jul-18 02:34N 42°56' E 009°31'1514.8
2016-Jul-18 01:33N 43°10' E 009°23'1514.8
2016-Jul-18 00:34N 43°23' E 009°13'1514.9
2016-Jul-17 23:34N 43°35' E 009°02'1514.9
2016-Jul-17 22:33N 43°48' E 008°52'1514.8
2016-Jul-17 21:33N 44°01' E 008°41'1514.7
2016-Jul-17 20:33N 44°13' E 008°30'4 3.1
2016-Jul-17 19:24N 44°16' E 008°27'0 0.0
2016-Jul-17 18:33N 44°16' E 008°27'1211.7
2016-Jul-17 17:34N 44°07' E 008°38'2020.3
2016-Jul-17 16:34N 43°50' E 008°52'2120.6
2016-Jul-17 15:34N 43°32' E 009°06'2120.5
2016-Jul-17 14:34N 43°14' E 009°20'2020.2
2016-Jul-17 13:33N 42°56' E 009°32'14 9.9
2016-Jul-17 12:09N 42°42' E 009°27'0 0.6
2016-Jul-17 11:33N 42°42' E 009°28'1817.6
2016-Jul-17 10:34N 42°59' E 009°32'2019.6
2016-Jul-17 09:34N 43°16' E 009°18'2020.2
2016-Jul-17 08:34N 43°34' E 009°04'2020.1
2016-Jul-17 07:33N 43°51' E 008°50'2020.2
2016-Jul-17 06:33N 44°08' E 008°35'8 4.2
2016-Jul-17 04:33N 44°16' E 008°29'10 9.9
2016-Jul-17 03:33N 44°08' E 008°38'10 9.8
2016-Jul-17 02:33N 43°59' E 008°45'1211.7
2016-Jul-17 01:33N 43°49' E 008°53'1212.2
2016-Jul-17 00:33N 43°39' E 009°02'1212.4
2016-Jul-16 23:33N 43°28' E 009°10'1212.3
2016-Jul-16 22:34N 43°17' E 009°18'1212.3
2016-Jul-16 21:33N 43°06' E 009°26'1211.5
2016-Jul-16 20:33N 42°56' E 009°32'14 6.1
2016-Jul-16 18:15N 42°42' E 009°28'1416.6
2016-Jul-16 17:25N 42°55' E 009°32'1619.1
2016-Jul-16 16:34N 43°10' E 009°23'2020.0
2016-Jul-16 15:33N 43°28' E 009°09'2020.1
2016-Jul-16 14:34N 43°45' E 008°54'2020.0
2016-Jul-16 13:34N 44°02' E 008°40'1716.5
2016-Jul-16 12:33N 44°16' E 008°27'0 0.2
2016-Jul-16 11:33N 44°16' E 008°27'1515.3
2016-Jul-16 10:33N 44°04' E 008°40'2020.1
2016-Jul-16 09:34N 43°47' E 008°54'2120.7
2016-Jul-16 08:33N 43°29' E 009°08'2120.7
2016-Jul-16 07:33N 43°11' E 009°23'11 2.5
2016-Jul-16 03:16N 43°02' E 009°30'1115.4
2016-Jul-16 02:34N 43°11' E 009°22'1515.5
2016-Jul-16 01:34N 43°24' E 009°11'1615.8
2016-Jul-16 00:34N 43°38' E 009°00'1615.5
2016-Jul-15 23:34N 43°51' E 008°49'1615.6
2016-Jul-15 22:34N 44°05' E 008°38'1414.0
2016-Jul-15 21:34N 44°16' E 008°27'0 0.1
2016-Jul-15 20:33N 44°16' E 008°27'1313.3
2016-Jul-15 19:33N 44°06' E 008°39'2019.9
2016-Jul-15 18:33N 43°49' E 008°53'2020.4
2016-Jul-15 17:34N 43°31' E 009°07'2120.5
2016-Jul-15 16:32N 43°13' E 009°21'28 7.0
2016-Jul-15 12:32N 42°56' E 009°52'2020.0
2016-Jul-15 11:34N 43°14' E 010°04'2019.6
2016-Jul-15 10:34N 43°31' E 010°15'3 2.9
2016-Jul-15 09:33N 43°33' E 010°18'4 3.7
2016-Jul-15 08:33N 43°30' E 010°14'1919.1
2016-Jul-15 07:33N 43°13' E 010°05'2118.2
2016-Jul-15 06:25N 42°55' E 009°50'14 3.7
2016-Jul-15 02:33N 42°57' E 009°31'1515.2
2016-Jul-15 01:33N 43°10' E 009°23'1616.3
2016-Jul-15 00:33N 43°24' E 009°11'1616.1
2016-Jul-14 23:33N 43°38' E 009°00'  
Track history (hours):
 
Tides and Currents Weather Stations Pressure Air Temp Water Temp Dewpoint Dewpoint Depression Visibility Wind Speed Wind Dir Waves Ship Positions

Mega Smeralda

Last reported at 2016-Jul-24 22:34 UTC. Time now 2016-Jul-25 06:13 UTC.
Position N 43°06' E 005°55'.

Length 171 m; draft 6.4 m.

Type: Passenger vessel. MMSI: 247228600.

Date/timePositionNaut miles runAvg speedWind from/ knotsBaromVisibWave heightAir tempDewpointWater temp
2016-Jul-24 22:34N 43°06' E 005°55'1 0.9
2016-Jul-24 21:32N 43°07' E 005°56'10817.9
2016-Jul-24 15:31N 42°45' E 008°20'2619.7
2016-Jul-24 14:12N 42°42' E 008°55'13415.5
2016-Jul-24 05:33N 43°07' E 005°56'0 0.2
2016-Jul-24 04:33N 43°07' E 005°56'13516.4
2016-Jul-23 20:18N 43°03' E 009°01'1418.9
2016-Jul-23 19:33N 43°03' E 009°20'1615.8
2016-Jul-23 18:33N 42°50' E 009°32'6 2.6
2016-Jul-23 16:15N 42°44' E 009°30'1217.1
2016-Jul-23 15:33N 42°56' E 009°35'1919.4
2016-Jul-23 14:33N 43°12' E 009°49'2020.1
2016-Jul-23 13:33N 43°27' E 010°07'10 9.5
2016-Jul-23 12:32N 43°33' E 010°18'0 0.0
2016-Jul-23 11:33N 43°33' E 010°18'1010.3
2016-Jul-23 10:34N 43°24' E 010°11'1717.4
2016-Jul-23 09:34N 43°08' E 010°01'1816.8
2016-Jul-23 08:30N 42°54' E 009°48'21 5.0
2016-Jul-23 04:23N 43°04' E 009°23'1619.6
2016-Jul-23 03:33N 43°03' E 009°01'2020.0
2016-Jul-23 02:33N 43°01' E 008°33'2019.5
2016-Jul-23 01:33N 43°00' E 008°07'1919.2
2016-Jul-23 00:33N 42°59' E 007°41'1919.3
2016-Jul-22 23:33N 42°58' E 007°14'1919.0
2016-Jul-22 22:33N 42°57' E 006°48'1919.1
2016-Jul-22 21:33N 42°56' E 006°22'2017.9
2016-Jul-22 20:26N 43°05' E 005°57'2 2.4
2016-Jul-22 19:32N 43°07' E 005°56'0 0.2
2016-Jul-22 18:33N 43°07' E 005°56'1615.3
2016-Jul-22 17:30N 42°56' E 006°13'1920.7
2016-Jul-22 16:33N 42°53' E 006°39'2020.4
2016-Jul-22 15:33N 42°51' E 007°06'2020.2
2016-Jul-22 14:33N 42°49' E 007°34'2020.2
2016-Jul-22 13:33N 42°46' E 008°01'2020.2
2016-Jul-22 12:33N 42°44' E 008°29'2020.1
2016-Jul-22 11:33N 42°41' E 008°56'3 2.6
2016-Jul-22 10:32N 42°38' E 008°56'9 9.3
2016-Jul-22 09:32N 42°45' E 008°48'2020.2
2016-Jul-22 08:33N 42°58' E 008°27'2020.1
2016-Jul-22 07:33N 43°11' E 008°06'4020.1
2016-Jul-22 05:33N 43°36' E 007°23'7 6.7
2016-Jul-22 04:32N 43°42' E 007°17'2 2.4
2016-Jul-22 03:33N 43°39' E 007°18'1515.2
2016-Jul-22 02:33N 43°34' E 007°38'1615.6
2016-Jul-22 01:33N 43°28' E 007°58'1615.8
2016-Jul-22 00:33N 43°22' E 008°18'1615.6
2016-Jul-21 23:33N 43°17' E 008°39'1615.7
2016-Jul-21 22:33N 43°11' E 008°59'1615.6
2016-Jul-21 21:32N 43°05' E 009°19'1413.9
2016-Jul-21 20:32N 42°55' E 009°32'13 6.7
2016-Jul-21 18:33N 42°42' E 009°28'1818.1
2016-Jul-21 17:33N 43°00' E 009°31'2019.8
2016-Jul-21 16:33N 43°17' E 009°17'2020.0
2016-Jul-21 15:33N 43°34' E 009°03'2019.9
2016-Jul-21 14:33N 43°51' E 008°49'2020.1
2016-Jul-21 13:33N 44°09' E 008°35'9 8.9
2016-Jul-21 12:31N 44°16' E 008°27'0 0.1
2016-Jul-21 11:34N 44°16' E 008°27'1615.6
2016-Jul-21 10:33N 44°04' E 008°41'2020.3
2016-Jul-21 09:33N 43°46' E 008°55'2120.6
2016-Jul-21 08:33N 43°29' E 009°09'2020.3
2016-Jul-21 07:33N 43°11' E 009°23'2120.4
2016-Jul-21 06:31N 42°51' E 009°32'9 4.4
2016-Jul-21 04:33N 42°43' E 009°29'1212.5
2016-Jul-21 03:33N 42°55' E 009°32'1313.0
2016-Jul-21 02:33N 43°07' E 009°25'1313.0
2016-Jul-21 01:33N 43°18' E 009°16'1513.2
2016-Jul-21 00:24N 43°31' E 009°06'1112.9
2016-Jul-20 23:34N 43°41' E 008°58'1313.0
2016-Jul-20 22:33N 43°52' E 008°49'1312.9
2016-Jul-20 21:33N 44°03' E 008°40'1313.0
2016-Jul-20 20:34N 44°14' E 008°30'3 3.0
2016-Jul-20 19:31N 44°16' E 008°27'0 0.0
2016-Jul-20 18:31N 44°16' E 008°27'0 0.0
2016-Jul-20 17:31N 44°16' E 008°27'0 0.0
2016-Jul-20 16:31N 44°16' E 008°27'0 0.0
2016-Jul-20 15:28N 44°16' E 008°27'8 8.7
2016-Jul-20 14:34N 44°11' E 008°35'1919.2
2016-Jul-20 13:34N 43°54' E 008°49'2120.6
2016-Jul-20 12:34N 43°36' E 009°03'2120.5
2016-Jul-20 11:34N 43°18' E 009°17'2120.5
2016-Jul-20 10:34N 43°00' E 009°31'1918.5
2016-Jul-20 09:33N 42°42' E 009°28'4 0.8
2016-Jul-20 04:33N 42°45' E 009°31'1312.5
2016-Jul-20 03:33N 42°58' E 009°31'1212.5
2016-Jul-20 02:34N 43°09' E 009°24'1312.7
2016-Jul-20 01:34N 43°20' E 009°15'1313.1
2016-Jul-20 00:33N 43°31' E 009°06'1312.8
2016-Jul-19 23:33N 43°42' E 008°57'1313.0
2016-Jul-19 22:33N 43°53' E 008°48'1313.2
2016-Jul-19 21:34N 44°05' E 008°38'1313.1
2016-Jul-19 20:33N 44°16' E 008°28'1 0.9
2016-Jul-19 19:33N 44°16' E 008°27'0 0.0
2016-Jul-19 18:33N 44°16' E 008°27'0 0.0
2016-Jul-19 17:33N 44°16' E 008°27'0 0.0
2016-Jul-19 16:33N 44°16' E 008°27'0 0.0
2016-Jul-19 15:33N 44°16' E 008°27'9 9.0
2016-Jul-19 14:34N 44°10' E 008°36'2019.8
2016-Jul-19 13:33N 43°53' E 008°50'2019.9
2016-Jul-19 12:34N 43°35' E 009°04'2019.9
2016-Jul-19 11:34N 43°18' E 009°17'2019.9
2016-Jul-19 10:34N 43°01' E 009°32'15 2.5
2016-Jul-19 04:32N 42°46' E 009°32'1515.0
2016-Jul-19 03:34N 43°01' E 009°30'1515.0
2016-Jul-19 02:34N 43°14' E 009°20'1615.1
2016-Jul-19 01:31N 43°27' E 009°09'1415.0
2016-Jul-19 00:33N 43°40' E 008°59'1514.7
2016-Jul-18 23:34N 43°52' E 008°48'1514.9
2016-Jul-18 22:34N 44°05' E 008°38'1313.2
2016-Jul-18 21:33N 44°16' E 008°27'0 0.0
2016-Jul-18 20:31N 44°16' E 008°27'6 6.2
2016-Jul-18 19:34N 44°12' E 008°34'2020.1
2016-Jul-18 18:33N 43°55' E 008°48'2020.2
2016-Jul-18 17:33N 43°37' E 009°02'2020.4
2016-Jul-18 16:33N 43°20' E 009°16'2120.5
2016-Jul-18 15:33N 43°02' E 009°30'20 9.6
2016-Jul-18 13:27N 42°42' E 009°27'1517.2
2016-Jul-18 12:33N 42°51' E 009°44'2019.8
2016-Jul-18 11:33N 43°07' E 010°01'2120.5
2016-Jul-18 10:33N 43°26' E 010°10'9 8.6
2016-Jul-18 09:31N 43°33' E 010°18'0 0.3
2016-Jul-18 08:33N 43°33' E 010°18'1716.7
2016-Jul-18 07:34N 43°18' E 010°07'2020.1
2016-Jul-18 06:33N 42°59' E 009°57'27 9.0
2016-Jul-18 03:33N 42°42' E 009°28'1414.1
2016-Jul-18 02:34N 42°56' E 009°31'1514.8
2016-Jul-18 01:33N 43°10' E 009°23'1514.8
2016-Jul-18 00:34N 43°23' E 009°13'1514.9
2016-Jul-17 23:34N 43°35' E 009°02'1514.9
2016-Jul-17 22:33N 43°48' E 008°52'1514.8
2016-Jul-17 21:33N 44°01' E 008°41'1514.7
2016-Jul-17 20:33N 44°13' E 008°30'4 3.1
2016-Jul-17 19:24N 44°16' E 008°27'0 0.0
2016-Jul-17 18:33N 44°16' E 008°27'1211.7
2016-Jul-17 17:34N 44°07' E 008°38'2020.3
2016-Jul-17 16:34N 43°50' E 008°52'2120.6
2016-Jul-17 15:34N 43°32' E 009°06'2120.5
2016-Jul-17 14:34N 43°14' E 009°20'2020.2
2016-Jul-17 13:33N 42°56' E 009°32'14 9.9
2016-Jul-17 12:09N 42°42' E 009°27'0 0.6
2016-Jul-17 11:33N 42°42' E 009°28'1817.6
2016-Jul-17 10:34N 42°59' E 009°32'2019.6
2016-Jul-17 09:34N 43°16' E 009°18'2020.2
2016-Jul-17 08:34N 43°34' E 009°04'2020.1
2016-Jul-17 07:33N 43°51' E 008°50'2020.2
2016-Jul-17 06:33N 44°08' E 008°35'8 4.2
2016-Jul-17 04:33N 44°16' E 008°29'10 9.9
2016-Jul-17 03:33N 44°08' E 008°38'10 9.8
2016-Jul-17 02:33N 43°59' E 008°45'1211.7
2016-Jul-17 01:33N 43°49' E 008°53'1212.2
2016-Jul-17 00:33N 43°39' E 009°02'1212.4
2016-Jul-16 23:33N 43°28' E 009°10'1212.3
2016-Jul-16 22:34N 43°17' E 009°18'1212.3
2016-Jul-16 21:33N 43°06' E 009°26'1211.5
2016-Jul-16 20:33N 42°56' E 009°32'14 6.1
2016-Jul-16 18:15N 42°42' E 009°28'1416.6
2016-Jul-16 17:25N 42°55' E 009°32'1619.1
2016-Jul-16 16:34N 43°10' E 009°23'2020.0
2016-Jul-16 15:33N 43°28' E 009°09'2020.1
2016-Jul-16 14:34N 43°45' E 008°54'2020.0
2016-Jul-16 13:34N 44°02' E 008°40'1716.5
2016-Jul-16 12:33N 44°16' E 008°27'0 0.2
2016-Jul-16 11:33N 44°16' E 008°27'1515.3
2016-Jul-16 10:33N 44°04' E 008°40'2020.1
2016-Jul-16 09:34N 43°47' E 008°54'2120.7
2016-Jul-16 08:33N 43°29' E 009°08'2120.7
2016-Jul-16 07:33N 43°11' E 009°23'11 2.5
2016-Jul-16 03:16N 43°02' E 009°30'1115.4
2016-Jul-16 02:34N 43°11' E 009°22'1515.5
2016-Jul-16 01:34N 43°24' E 009°11'1615.8
2016-Jul-16 00:34N 43°38' E 009°00'1615.5
2016-Jul-15 23:34N 43°51' E 008°49'1615.6
2016-Jul-15 22:34N 44°05' E 008°38'1414.0
2016-Jul-15 21:34N 44°16' E 008°27'0 0.1
2016-Jul-15 20:33N 44°16' E 008°27'1313.3
2016-Jul-15 19:33N 44°06' E 008°39'2019.9
2016-Jul-15 18:33N 43°49' E 008°53'2020.4
2016-Jul-15 17:34N 43°31' E 009°07'2120.5
2016-Jul-15 16:32N 43°13' E 009°21'28 7.0
2016-Jul-15 12:32N 42°56' E 009°52'2020.0
2016-Jul-15 11:34N 43°14' E 010°04'2019.6
2016-Jul-15 10:34N 43°31' E 010°15'3 2.9
2016-Jul-15 09:33N 43°33' E 010°18'4 3.7
2016-Jul-15 08:33N 43°30' E 010°14'1919.1
2016-Jul-15 07:33N 43°13' E 010°05'2118.2
2016-Jul-15 06:25N 42°55' E 009°50'14 3.7
2016-Jul-15 02:33N 42°57' E 009°31'1515.2
2016-Jul-15 01:33N 43°10' E 009°23'1616.3
2016-Jul-15 00:33N 43°24' E 009°11'1616.1
2016-Jul-14 23:33N 43°38' E 009°00'  

Dump ship's entire track history